createdAt,value
2023-02-12T00:01:18.392Z,60.85
2023-02-12T00:03:48.869Z,61.21
2023-02-12T00:06:17.073Z,61.88
2023-02-12T00:08:45.303Z,59.81
2023-02-12T00:11:16.061Z,60.62
2023-02-12T00:13:44.677Z,61.26
2023-02-12T00:16:15.729Z,60.65
2023-02-12T00:18:44.356Z,61.47
2023-02-12T00:21:14.859Z,61.18
2023-02-12T00:23:43.036Z,60.71
2023-02-12T00:26:13.847Z,60.19
2023-02-12T00:28:48.154Z,60.48
2023-02-12T00:31:18.573Z,60.78
2023-02-12T00:33:46.879Z,61.50
2023-02-12T00:36:19.070Z,60.80
2023-02-12T00:38:47.936Z,62.13
2023-02-12T00:41:16.311Z,61.35
2023-02-12T00:43:44.465Z,62.31
2023-02-12T00:46:12.845Z,61.64
2023-02-12T00:48:41.215Z,60.73
2023-02-12T00:51:09.585Z,60.67
2023-02-12T00:53:39.298Z,62.01
2023-02-12T00:56:08.882Z,61.25
2023-02-12T00:58:37.098Z,61.62
2023-02-12T01:01:05.614Z,61.14
2023-02-12T01:03:34.117Z,60.81
2023-02-12T01:06:02.433Z,61.56
2023-02-12T01:08:30.690Z,59.40
2023-02-12T01:11:03.170Z,59.25
2023-02-12T01:13:32.450Z,59.33
2023-02-12T01:16:14.851Z,60.26
2023-02-12T01:18:43.396Z,59.79
2023-02-12T01:21:13.711Z,59.39
2023-02-12T01:23:41.922Z,59.37
2023-02-12T01:26:12.212Z,58.68
2023-02-12T01:28:41.546Z,60.38
2023-02-12T01:31:12.034Z,60.09
2023-02-12T01:33:40.429Z,59.76
2023-02-12T01:36:09.817Z,60.57
2023-02-12T01:38:37.999Z,58.84
2023-02-12T01:41:07.788Z,60.45
2023-02-12T01:43:38.828Z,59.94
2023-02-12T01:46:08.806Z,59.63
2023-02-12T01:48:40.281Z,60.59
2023-02-12T01:51:12.481Z,60.37
2023-02-12T01:53:44.589Z,61.41
2023-02-12T01:56:12.831Z,60.23
2023-02-12T01:58:47.047Z,59.59
2023-02-12T02:01:20.726Z,60.00
2023-02-12T02:03:53.644Z,58.58
2023-02-12T02:06:27.925Z,58.32
2023-02-12T02:08:57.808Z,57.29
2023-02-12T02:11:44.293Z,57.77
2023-02-12T02:14:31.527Z,59.32
2023-02-12T02:17:17.476Z,59.66
2023-02-12T02:20:04.142Z,59.74
2023-02-12T02:22:38.955Z,59.80
2023-02-12T02:25:36.050Z,61.50
2023-02-12T02:28:14.124Z,61.86
2023-02-12T02:30:49.352Z,62.35
2023-02-12T02:33:38.870Z,60.71
2023-02-12T02:36:20.080Z,60.98
2023-02-12T02:38:53.468Z,61.47
2023-02-12T02:41:28.618Z,62.04
2023-02-12T02:43:57.035Z,62.03
2023-02-12T02:46:32.019Z,60.59
2023-02-12T02:49:03.477Z,61.15
2023-02-12T02:51:35.597Z,61.86
2023-02-12T02:54:09.116Z,62.46
2023-02-12T02:56:40.488Z,60.57
2023-02-12T02:59:12.876Z,60.89
2023-02-12T03:01:48.066Z,61.42
2023-02-12T03:04:22.314Z,61.58
2023-02-12T03:06:57.181Z,61.42
2023-02-12T03:09:33.234Z,61.58
2023-02-12T03:12:07.522Z,60.96
2023-02-12T03:14:39.619Z,59.81
2023-02-12T03:17:14.945Z,60.50
2023-02-12T03:19:47.027Z,61.14
2023-02-12T03:22:19.725Z,62.07
2023-02-12T03:24:51.843Z,62.92
2023-02-12T03:27:25.946Z,60.05
2023-02-12T03:29:54.351Z,61.41
2023-02-12T03:32:34.853Z,62.60
2023-02-12T03:35:15.345Z,62.72
2023-02-12T03:37:52.617Z,63.03
2023-02-12T03:40:26.210Z,61.95
2023-02-12T03:43:01.564Z,62.33
2023-02-12T03:45:41.664Z,61.62
2023-02-12T03:48:19.802Z,61.82
2023-02-12T03:50:54.400Z,62.31
2023-02-12T03:53:22.751Z,62.64
2023-02-12T03:55:57.444Z,61.03
2023-02-12T03:58:50.571Z,60.62
2023-02-12T04:01:19.147Z,60.31
2023-02-12T04:03:49.288Z,59.92
2023-02-12T04:06:21.849Z,59.58
2023-02-12T04:08:50.817Z,58.43
2023-02-12T04:11:28.124Z,60.25
2023-02-12T04:14:11.996Z,60.57
2023-02-12T04:16:46.835Z,60.40
2023-02-12T04:19:24.809Z,59.63
2023-02-12T04:22:01.601Z,58.91
2023-02-12T04:24:39.049Z,61.27
2023-02-12T04:27:13.527Z,61.97
2023-02-12T04:29:49.543Z,60.49
2023-02-12T04:32:23.977Z,60.23
2023-02-12T04:34:58.971Z,60.80
2023-02-12T04:37:34.481Z,60.54
2023-02-12T04:40:07.046Z,61.00
2023-02-12T04:42:43.422Z,60.41
2023-02-12T04:45:12.279Z,60.70
2023-02-12T04:47:40.420Z,60.20
2023-02-12T04:50:11.529Z,59.45
2023-02-12T04:52:39.734Z,59.21
2023-02-12T04:55:08.291Z,60.16
2023-02-12T04:57:36.386Z,59.08
2023-02-12T05:00:06.247Z,59.73
2023-02-12T05:02:35.485Z,60.30
2023-02-12T05:05:03.741Z,60.24
2023-02-12T05:07:33.380Z,60.73
2023-02-12T05:10:01.393Z,60.52
2023-02-12T05:12:29.528Z,59.92
2023-02-12T05:14:58.815Z,61.56
2023-02-12T05:17:27.356Z,59.47
2023-02-12T05:19:55.850Z,58.73
2023-02-12T05:22:24.262Z,60.19
2023-02-12T05:24:53.653Z,59.29
2023-02-12T05:27:21.705Z,58.13
2023-02-12T05:29:50.031Z,57.47
2023-02-12T05:32:18.143Z,56.50
2023-02-12T05:34:46.176Z,57.61
2023-02-12T05:37:14.367Z,58.46
2023-02-12T05:39:42.829Z,58.35
2023-02-12T05:42:12.372Z,58.54
2023-02-12T05:44:40.732Z,59.02
2023-02-12T05:47:08.723Z,58.95
2023-02-12T05:49:36.715Z,58.52
2023-02-12T05:52:05.332Z,59.34
2023-02-12T05:54:33.869Z,57.99
2023-02-12T05:57:01.872Z,59.29
2023-02-12T05:59:31.315Z,58.90
2023-02-12T06:01:59.497Z,58.62
2023-02-12T06:04:30.755Z,58.12
2023-02-12T06:06:58.822Z,57.63
2023-02-12T06:09:26.969Z,57.63
2023-02-12T06:11:55.270Z,57.66
2023-02-12T06:14:23.283Z,58.16
2023-02-12T06:16:53.524Z,58.18
2023-02-12T06:19:22.189Z,59.18
2023-02-12T06:21:50.255Z,59.48
2023-02-12T06:24:19.228Z,58.24
2023-02-12T06:26:50.340Z,58.26
2023-02-12T06:29:18.814Z,57.64
2023-02-12T06:31:47.211Z,58.33
2023-02-12T06:34:18.203Z,57.91
2023-02-12T06:36:48.257Z,57.44
2023-02-12T06:39:18.052Z,57.10
2023-02-12T06:41:46.409Z,57.09
2023-02-12T06:44:14.959Z,59.00
2023-02-12T06:46:43.341Z,58.40
2023-02-12T06:49:14.301Z,58.33
2023-02-12T06:51:43.711Z,57.75
2023-02-12T06:54:15.864Z,57.76
2023-02-12T06:56:44.440Z,56.83
2023-02-12T06:59:15.813Z,57.10
2023-02-12T07:01:44.426Z,56.65
2023-02-12T07:04:12.850Z,57.03
2023-02-12T07:06:41.356Z,56.92
2023-02-12T07:09:10.929Z,56.67
2023-02-12T07:11:39.313Z,56.44
2023-02-12T07:14:08.261Z,56.55
2023-02-12T07:16:36.483Z,56.94
2023-02-12T07:19:05.151Z,56.34
2023-02-12T07:21:33.953Z,56.08
2023-02-12T07:24:02.192Z,56.69
2023-02-12T07:26:32.677Z,57.07
2023-02-12T07:29:01.131Z,56.18
2023-02-12T07:31:29.469Z,55.75
2023-02-12T07:33:59.830Z,56.08
2023-02-12T07:36:31.873Z,56.74
2023-02-12T07:39:01.753Z,56.50
2023-02-12T07:41:33.097Z,56.34
2023-02-12T07:44:03.693Z,55.75
2023-02-12T07:46:33.937Z,55.37
2023-02-12T07:49:04.454Z,55.06
2023-02-12T07:51:33.859Z,54.60
2023-02-12T07:54:02.129Z,54.23
2023-02-12T07:56:35.358Z,54.73
2023-02-12T07:59:06.912Z,55.11
2023-02-12T08:01:37.030Z,55.70
2023-02-12T08:04:07.879Z,55.90
2023-02-12T08:06:39.425Z,55.75
2023-02-12T08:09:10.729Z,55.59
2023-02-12T08:11:42.170Z,55.70
2023-02-12T08:14:12.668Z,55.47
2023-02-12T08:16:43.039Z,55.55
2023-02-12T08:19:19.312Z,55.74
2023-02-12T08:21:51.408Z,56.13
2023-02-12T08:24:22.092Z,56.24
2023-02-12T08:26:52.000Z,56.66
2023-02-12T08:29:21.858Z,56.61
2023-02-12T08:31:52.295Z,56.57
2023-02-12T08:34:22.370Z,56.91
2023-02-12T08:36:54.270Z,56.64
2023-02-12T08:39:23.159Z,55.70
2023-02-12T08:41:55.086Z,55.19
2023-02-12T08:44:23.859Z,55.44
2023-02-12T08:46:55.720Z,54.49
2023-02-12T08:49:26.417Z,56.73
2023-02-12T08:51:57.388Z,57.08
2023-02-12T08:54:27.507Z,56.77
2023-02-12T08:56:58.306Z,55.76
2023-02-12T08:59:26.878Z,55.38
2023-02-12T09:01:55.129Z,55.52
2023-02-12T09:04:25.196Z,56.90
2023-02-12T09:06:53.691Z,56.93
2023-02-12T09:09:22.904Z,57.09
2023-02-12T09:11:51.477Z,56.68
2023-02-12T09:14:24.104Z,56.51
2023-02-12T09:16:53.576Z,57.25
2023-02-12T09:19:22.122Z,56.20
2023-02-12T09:21:55.225Z,55.84
2023-02-12T09:24:24.620Z,54.29
2023-02-12T09:26:52.799Z,54.28
2023-02-12T09:29:22.253Z,53.30
2023-02-12T09:31:50.481Z,53.77
2023-02-12T09:34:19.466Z,53.49
2023-02-12T09:36:47.686Z,54.12
2023-02-12T09:39:15.844Z,53.31
2023-02-12T09:42:22.465Z,53.89
2023-02-12T09:45:01.653Z,53.64
2023-02-12T09:47:35.993Z,53.06
2023-02-12T09:50:28.508Z,53.42
2023-02-12T09:52:59.219Z,52.91
2023-02-12T09:55:30.277Z,54.86
2023-02-12T09:58:00.125Z,53.23
2023-02-12T10:00:32.110Z,53.49
2023-02-12T10:03:05.495Z,53.07
2023-02-12T10:05:39.062Z,53.32
2023-02-12T10:08:24.829Z,54.43
2023-02-12T10:10:55.355Z,53.93
2023-02-12T10:13:37.606Z,53.77
2023-02-12T10:16:17.505Z,54.56
2023-02-12T10:19:00.451Z,54.15
2023-02-12T10:21:49.309Z,54.68
2023-02-12T10:24:49.397Z,54.91
2023-02-12T10:27:21.284Z,54.27
2023-02-12T10:29:50.793Z,52.92
2023-02-12T10:32:27.073Z,51.79
2023-02-12T10:34:58.053Z,52.08
2023-02-12T10:37:34.901Z,51.43
2023-02-12T10:40:05.934Z,50.45
2023-02-12T10:42:40.035Z,51.13
2023-02-12T10:45:15.977Z,51.50
2023-02-12T10:47:49.586Z,51.97
2023-02-12T10:50:37.101Z,51.72
2023-02-12T10:53:05.259Z,52.57
2023-02-12T10:55:34.927Z,52.80
2023-02-12T10:58:04.708Z,53.58
2023-02-12T11:00:34.915Z,52.92
2023-02-12T11:03:20.549Z,53.13
2023-02-12T11:05:49.790Z,53.03
2023-02-12T11:08:31.903Z,53.08
2023-02-12T11:11:12.583Z,51.06
2023-02-12T11:13:45.725Z,52.79
2023-02-12T11:16:14.615Z,52.43
2023-02-12T11:18:44.414Z,52.81
2023-02-12T11:21:14.308Z,52.67
2023-02-12T11:23:45.264Z,52.82
2023-02-12T11:26:26.327Z,52.25
2023-02-12T11:28:57.945Z,51.42
2023-02-12T11:31:28.338Z,51.78
2023-02-12T11:34:20.333Z,51.66
2023-02-12T11:36:51.469Z,52.57
2023-02-12T11:39:23.070Z,51.16
2023-02-12T11:41:54.421Z,51.11
2023-02-12T11:44:26.094Z,51.42
2023-02-12T11:46:57.785Z,51.83
2023-02-12T11:49:31.770Z,51.92
2023-02-12T11:52:03.745Z,50.92
2023-02-12T11:54:40.898Z,50.16
2023-02-12T11:57:11.990Z,49.80
2023-02-12T11:59:44.831Z,50.46
2023-02-12T12:02:23.355Z,49.50
2023-02-12T12:04:56.789Z,50.26
2023-02-12T12:07:31.250Z,49.54
2023-02-12T12:10:02.575Z,49.59
2023-02-12T12:12:39.058Z,50.23
2023-02-12T12:15:34.767Z,50.20
2023-02-12T12:18:35.605Z,49.64
2023-02-12T12:21:13.910Z,49.69
2023-02-12T12:23:47.426Z,50.50
2023-02-12T12:26:23.181Z,50.14
2023-02-12T12:28:55.945Z,49.66
2023-02-12T12:31:29.735Z,50.73
2023-02-12T12:34:05.747Z,52.40
2023-02-12T12:37:07.590Z,52.72
2023-02-12T12:39:41.400Z,51.93
2023-02-12T12:42:37.143Z,52.72
2023-02-12T12:45:18.291Z,52.71
2023-02-12T12:48:03.711Z,54.19
2023-02-12T12:50:51.987Z,55.06
2023-02-12T12:53:36.713Z,55.19
2023-02-12T12:56:17.881Z,54.76
2023-02-12T12:59:01.148Z,54.51
2023-02-12T13:01:55.052Z,55.29
2023-02-12T13:04:53.489Z,53.94
2023-02-12T13:07:36.469Z,54.17
2023-02-12T13:10:20.762Z,54.72
2023-02-12T13:13:03.138Z,54.56
2023-02-12T13:15:38.387Z,55.20
2023-02-12T13:18:18.526Z,55.39
2023-02-12T13:20:52.904Z,55.22
2023-02-12T13:23:29.537Z,54.36
2023-02-12T13:26:09.234Z,54.40
2023-02-12T13:28:41.411Z,54.66
2023-02-12T13:31:31.924Z,55.05
2023-02-12T13:34:03.823Z,55.04
2023-02-12T13:36:32.899Z,55.44
2023-02-12T13:39:08.308Z,54.31
2023-02-12T13:41:39.081Z,53.19
2023-02-12T13:44:16.261Z,52.74
2023-02-12T13:46:57.173Z,52.95
2023-02-12T13:49:36.906Z,52.89
2023-02-12T13:52:10.042Z,54.38
2023-02-12T13:54:50.894Z,53.01
2023-02-12T13:57:22.770Z,52.36
2023-02-12T13:59:53.804Z,52.23
2023-02-12T14:02:44.203Z,51.30
2023-02-12T14:05:28.745Z,52.24
2023-02-12T14:08:00.372Z,52.11
2023-02-12T14:10:35.434Z,52.28
2023-02-12T14:17:53.825Z,53.64
2023-02-12T14:20:29.937Z,54.14
2023-02-12T14:23:05.441Z,54.53
2023-02-12T14:25:45.212Z,55.30
2023-02-12T14:28:25.866Z,55.23
2023-02-12T14:31:31.943Z,55.08
2023-02-12T14:34:40.549Z,54.73
2023-02-12T14:37:15.936Z,54.67
2023-02-12T14:39:45.372Z,53.69
2023-02-12T14:42:45.787Z,56.93
2023-02-12T14:45:32.800Z,57.17
2023-02-12T14:48:02.029Z,56.87
2023-02-12T14:50:38.436Z,56.65
2023-02-12T14:53:23.422Z,56.79
2023-02-12T14:55:52.994Z,56.92
2023-02-12T14:58:24.738Z,58.24
2023-02-12T15:00:56.337Z,57.91
2023-02-12T15:03:30.360Z,57.04
2023-02-12T15:06:05.282Z,56.96
2023-02-12T15:08:41.347Z,57.13
2023-02-12T15:11:21.442Z,58.08
2023-02-12T15:13:55.575Z,58.56
2023-02-12T15:16:31.186Z,58.09
2023-02-12T15:19:06.622Z,57.64
2023-02-12T15:21:37.321Z,57.89
2023-02-12T15:24:07.636Z,57.66
2023-02-12T15:26:41.627Z,57.71
2023-02-12T15:29:20.650Z,57.32
2023-02-12T15:31:53.189Z,55.55
2023-02-12T15:34:24.197Z,55.17
2023-02-12T15:36:56.062Z,54.29
2023-02-12T15:39:25.907Z,54.05
2023-02-12T15:41:54.157Z,53.93
2023-02-12T15:44:28.683Z,53.77
2023-02-12T15:47:03.700Z,54.90
2023-02-12T15:49:35.573Z,54.90
2023-02-12T15:52:09.494Z,53.95
2023-02-12T15:54:38.597Z,55.14
2023-02-12T15:57:12.323Z,56.11
2023-02-12T15:59:41.616Z,55.78
2023-02-12T16:02:19.733Z,55.59
2023-02-12T16:04:48.672Z,54.06
2023-02-12T16:07:20.395Z,54.24
2023-02-12T16:09:51.873Z,54.03
2023-02-12T16:12:23.266Z,53.55
2023-02-12T16:14:54.294Z,53.79
2023-02-12T16:17:27.659Z,54.67
2023-02-12T16:19:58.432Z,54.92
2023-02-12T16:22:32.536Z,53.94
2023-02-12T16:25:02.043Z,53.26
2023-02-12T16:27:31.966Z,54.91
2023-02-12T16:30:02.615Z,55.93
2023-02-12T16:32:38.959Z,56.40
2023-02-12T16:35:25.264Z,55.12
2023-02-12T16:38:01.440Z,55.26
2023-02-12T16:40:38.866Z,54.30
2023-02-12T16:43:24.805Z,54.11
2023-02-12T16:46:03.081Z,55.10
2023-02-12T16:48:33.596Z,55.06
2023-02-12T16:51:06.246Z,54.23
2023-02-12T16:53:43.763Z,53.86
2023-02-12T16:56:21.130Z,53.54
2023-02-12T16:58:52.297Z,53.44
2023-02-12T17:01:23.781Z,53.18
2023-02-12T17:03:52.469Z,53.63
2023-02-12T17:06:22.409Z,53.45
2023-02-12T17:08:52.494Z,53.38
2023-02-12T17:11:21.189Z,53.11
2023-02-12T17:13:51.027Z,52.89
2023-02-12T17:16:30.197Z,53.26
2023-02-12T17:18:59.668Z,53.19
2023-02-12T17:21:30.651Z,52.89
2023-02-12T17:24:00.436Z,52.95
2023-02-12T17:26:28.781Z,53.29
2023-02-12T17:29:05.510Z,52.97
2023-02-12T17:31:33.999Z,52.98
2023-02-12T17:34:02.283Z,52.94
2023-02-12T17:36:30.581Z,52.76
2023-02-12T17:39:00.620Z,53.14
2023-02-12T17:41:28.685Z,53.11
2023-02-12T17:43:56.794Z,53.32
2023-02-12T17:46:26.589Z,53.05
2023-02-12T17:48:54.724Z,54.18
2023-02-12T17:51:23.190Z,53.73
2023-02-12T17:53:51.822Z,53.00
2023-02-12T17:56:23.267Z,53.04
2023-02-12T17:58:52.764Z,52.67
2023-02-12T18:01:23.714Z,52.79
2023-02-12T18:03:55.351Z,53.54
2023-02-12T18:06:25.494Z,53.76
2023-02-12T18:08:54.156Z,53.46
2023-02-12T18:11:23.816Z,52.57
2023-02-12T18:13:54.377Z,52.75
2023-02-12T18:16:23.696Z,52.91
2023-02-12T18:18:52.078Z,52.39
2023-02-12T18:21:21.070Z,52.76
2023-02-12T18:23:49.178Z,53.10
2023-02-12T18:26:19.930Z,52.41
2023-02-12T18:28:49.561Z,53.43
2023-02-12T18:31:20.410Z,54.15
2023-02-12T18:33:48.561Z,54.41
2023-02-12T18:36:18.830Z,53.96
2023-02-12T18:38:49.532Z,54.39
2023-02-12T18:41:20.626Z,55.80
2023-02-12T18:43:50.581Z,56.48
2023-02-12T18:46:21.443Z,57.98
2023-02-12T18:48:50.285Z,57.40
2023-02-12T18:51:21.111Z,56.38
2023-02-12T18:53:54.365Z,57.29
2023-02-12T18:56:23.060Z,57.07
2023-02-12T18:58:57.834Z,56.94
2023-02-12T19:01:26.732Z,58.53
2023-02-12T19:03:56.157Z,58.71
2023-02-12T19:06:25.116Z,57.84
2023-02-12T19:08:56.117Z,58.02
2023-02-12T19:11:24.310Z,57.76
2023-02-12T19:13:52.994Z,56.52
2023-02-12T19:16:24.976Z,55.36
2023-02-12T19:18:55.680Z,54.99
2023-02-12T19:21:26.248Z,54.24
2023-02-12T19:23:55.560Z,54.02
2023-02-12T19:26:24.581Z,54.69
2023-02-12T19:28:52.822Z,54.48
2023-02-12T19:31:25.426Z,54.41
2023-02-12T19:33:57.260Z,54.26
2023-02-12T19:36:27.367Z,53.33
2023-02-12T19:38:55.780Z,53.03
2023-02-12T19:41:25.737Z,53.40
2023-02-12T19:43:55.866Z,53.51
2023-02-12T19:46:27.277Z,53.26
2023-02-12T19:48:57.619Z,53.79
2023-02-12T19:51:26.573Z,53.68
2023-02-12T19:53:56.253Z,54.32
2023-02-12T19:56:24.214Z,54.37
2023-02-12T19:58:53.210Z,54.44
2023-02-12T20:01:22.398Z,54.19
2023-02-12T20:03:52.565Z,55.25
2023-02-12T20:06:23.286Z,55.14
2023-02-12T20:08:52.962Z,54.09
2023-02-12T20:11:24.016Z,54.38
2023-02-12T20:13:52.177Z,53.74
2023-02-12T20:16:23.872Z,54.07
2023-02-12T20:18:55.601Z,53.96
2023-02-12T20:21:28.271Z,54.28
2023-02-12T20:23:57.209Z,54.42
2023-02-12T20:26:25.936Z,53.57
2023-02-12T20:28:54.376Z,53.28
2023-02-12T20:31:24.549Z,53.09
2023-02-12T20:33:56.560Z,52.78
2023-02-12T20:36:25.803Z,52.94
2023-02-12T20:38:56.060Z,53.21
2023-02-12T20:41:24.934Z,53.21
2023-02-12T20:43:52.875Z,53.22
2023-02-12T20:46:22.851Z,53.42
2023-02-12T20:48:51.325Z,52.95
2023-02-12T20:51:22.762Z,52.77
2023-02-12T20:53:51.654Z,52.41
2023-02-12T20:56:21.294Z,52.45
2023-02-12T20:58:49.515Z,52.32
2023-02-12T21:01:21.583Z,52.44
2023-02-12T21:03:51.103Z,52.69
2023-02-12T21:06:21.796Z,52.78
2023-02-12T21:08:51.360Z,52.84
2023-02-12T21:11:21.328Z,53.74
2023-02-12T21:13:58.881Z,54.06
2023-02-12T21:16:32.156Z,54.18
2023-02-12T21:19:01.408Z,53.94
2023-02-12T21:21:41.827Z,54.41
2023-02-12T21:24:13.713Z,54.10
2023-02-12T21:26:41.984Z,54.29
2023-02-12T21:29:10.093Z,54.45
2023-02-12T21:31:40.449Z,54.87
2023-02-12T21:34:10.380Z,54.36
2023-02-12T21:36:42.304Z,53.97
2023-02-12T21:39:13.793Z,53.85
2023-02-12T21:41:43.735Z,54.67
2023-02-12T21:44:14.894Z,54.66
2023-02-12T21:46:43.484Z,54.98
2023-02-12T21:49:12.890Z,54.45
2023-02-12T21:51:44.548Z,55.40
2023-02-12T21:54:15.521Z,56.61
2023-02-12T21:56:45.490Z,56.01
2023-02-12T21:59:15.054Z,55.33
2023-02-12T22:01:45.567Z,54.89
2023-02-12T22:04:13.697Z,55.58
2023-02-12T22:06:46.050Z,55.54
2023-02-12T22:09:16.372Z,55.83
2023-02-12T22:11:44.729Z,56.05
2023-02-12T22:14:15.587Z,55.37
2023-02-12T22:16:44.233Z,55.51
2023-02-12T22:19:12.693Z,55.54
2023-02-12T22:21:43.599Z,54.80
2023-02-12T22:24:15.020Z,55.64
2023-02-12T22:26:43.906Z,55.54
2023-02-12T22:29:14.542Z,57.00
2023-02-12T22:31:44.564Z,56.89
2023-02-12T22:34:14.747Z,56.43
2023-02-12T22:36:44.117Z,55.33
2023-02-12T22:39:13.862Z,54.89
2023-02-12T22:41:43.192Z,55.32
2023-02-12T22:44:13.062Z,55.24
2023-02-12T22:46:41.565Z,55.19
2023-02-12T22:49:09.962Z,55.61
2023-02-12T22:51:39.798Z,55.45
2023-02-12T22:54:13.905Z,54.95
2023-02-12T22:56:42.332Z,54.78
2023-02-12T22:59:11.902Z,55.24
2023-02-12T23:01:40.307Z,56.58
2023-02-12T23:04:08.761Z,56.28
2023-02-12T23:06:37.212Z,57.09
2023-02-12T23:09:06.476Z,57.23
2023-02-12T23:11:36.905Z,56.71
2023-02-12T23:14:04.930Z,57.47
2023-02-12T23:16:33.399Z,59.02
2023-02-12T23:19:02.576Z,58.80
2023-02-12T23:21:32.552Z,59.66
2023-02-12T23:24:00.760Z,59.39
2023-02-12T23:26:30.447Z,59.16
2023-02-12T23:29:00.155Z,59.89
2023-02-12T23:31:28.353Z,58.82
2023-02-12T23:33:56.593Z,59.05
2023-02-12T23:36:24.887Z,58.73
2023-02-12T23:38:53.136Z,58.01
2023-02-12T23:41:21.167Z,58.37
2023-02-12T23:43:49.460Z,58.01
2023-02-12T23:46:19.138Z,57.79
2023-02-12T23:48:47.113Z,57.68
2023-02-12T23:51:15.543Z,57.69
2023-02-12T23:53:43.545Z,57.08
2023-02-12T23:56:11.564Z,57.01
2023-02-12T23:58:39.734Z,57.66
